Time;durP1;ratioP1;P1;durP2;ratioP2;P2;SDS_P1;SDS_P2;PMS_P1;PMS_P2;Temp;Humidity;BMP_temperature;BMP_pressure;BME280_temperature;BME280_humidity;BME280_pressure;Samples;Min_cycle;Max_cycle;Signal;HPM_P1;HPM_P2
2022/06/15 00:14:48;;;;;;;6.63;2.42;;;;;;;10.05;63.74;100717.84;30980419;28;96644;-68
2022/06/15 00:29:49;;;;;;;7.82;2.97;;;;;;;10.02;64.31;100718.16;30977964;28;97353;-68
2022/06/15 00:44:49;;;;;;;5.22;2.60;;;;;;;9.99;64.90;100718.44;30978066;28;104945;-68
2022/06/15 00:59:56;;;;;;;4.85;2.08;;;;;;;9.87;65.49;100717.88;30976996;28;96785;-64
2022/06/15 01:15:09;;;;;;;5.43;2.77;;;;;;;9.78;66.06;100711.63;30975484;28;96680;-67
2022/06/15 01:30:32;;;;;;;8.80;2.80;;;;;;;9.76;66.49;100713.59;30974976;28;96980;-67
2022/06/15 01:45:35;;;;;;;7.87;2.80;;;;;;;9.69;67.03;100712.56;30982222;28;97511;-68
2022/06/15 02:00:36;;;;;;;6.43;3.00;;;;;;;9.60;67.63;100708.13;30993576;28;97255;-68
2022/06/15 02:15:42;;;;;;;6.17;2.97;;;;;;;9.49;67.97;100707.34;30991803;28;96652;-68
2022/06/15 02:30:42;;;;;;;9.63;3.40;;;;;;;9.28;68.51;100698.81;30990558;28;96955;-69
2022/06/15 02:45:44;;;;;;;11.82;3.50;;;;;;;9.12;69.07;100700.31;30989590;28;96718;-68
2022/06/15 03:00:44;;;;;;;11.20;4.00;;;;;;;9.11;70.06;100719.06;30986155;28;97354;-65
2022/06/15 03:15:46;;;;;;;10.02;4.00;;;;;;;9.05;70.89;100714.31;30985203;28;96787;-61
2022/06/15 03:30:46;;;;;;;8.90;4.30;;;;;;;9.21;71.90;100724.31;30983574;28;96882;-68
2022/06/15 03:45:46;;;;;;;8.90;4.88;;;;;;;9.56;71.55;100720.06;30978654;28;97354;-67
2022/06/15 04:00:48;;;;;;;5.72;4.47;;;;;;;9.86;71.45;100723.34;30979163;28;96699;-65
2022/06/15 04:15:48;;;;;;;8.77;4.43;;;;;;;10.22;70.62;100728.63;30975721;28;97367;-65
2022/06/15 04:30:49;;;;;;;9.10;4.55;;;;;;;10.62;70.39;100722.78;30975357;28;97634;-67
2022/06/15 04:45:49;;;;;;;6.15;3.70;;;;;;;10.98;69.64;100735.13;30974372;28;96764;-68
2022/06/15 05:00:50;;;;;;;12.73;4.47;;;;;;;11.47;69.16;100724.63;30971215;28;96852;-66
2022/06/15 05:15:50;;;;;;;8.48;3.88;;;;;;;12.12;68.13;100717.72;30967912;28;98212;-61
2022/06/15 05:30:51;;;;;;;6.80;2.90;;;;;;;12.88;66.50;100732.63;30988425;28;97978;-65
2022/06/15 05:45:51;;;;;;;6.43;3.15;;;;;;;13.62;64.59;100746.53;30980893;28;97010;-70
2022/06/15 06:00:52;;;;;;;7.75;2.75;;;;;;;14.51;62.32;100723.72;30970975;28;97228;-68
2022/06/15 06:15:55;;;;;;;4.05;2.45;;;;;;;15.41;60.04;100724.53;30970807;28;97665;-67
2022/06/15 06:30:57;;;;;;;5.20;2.40;;;;;;;16.29;56.78;100723.53;30983297;28;96994;-69
2022/06/15 06:45:58;;;;;;;12.73;5.10;;;;;;;16.94;53.50;100734.16;30975001;28;97987;-64
2022/06/15 07:00:58;;;;;;;6.65;2.08;;;;;;;17.54;51.23;100732.50;30980026;28;96988;-77
2022/06/15 07:16:03;;;;;;;4.50;1.33;;;;;;;18.18;46.97;100727.66;30975913;28;96832;-66
2022/06/15 07:31:03;;;;;;;5.63;1.40;;;;;;;18.66;44.09;100726.56;30966017;28;97192;-63
2022/06/15 07:46:03;;;;;;;6.28;1.70;;;;;;;19.15;41.43;100718.13;30972060;28;97309;-63
2022/06/15 08:01:04;;;;;;;2.53;1.00;;;;;;;19.67;40.41;100718.91;30964076;28;99602;-62
2022/06/15 08:16:05;;;;;;;6.18;1.30;;;;;;;20.25;38.63;100720.56;30965848;28;97397;-63
2022/06/15 08:31:06;;;;;;;2.93;1.17;;;;;;;20.50;38.19;100700.78;30972522;28;98727;-66
2022/06/15 08:46:26;;;;;;;4.25;1.50;;;;;;;21.21;36.37;100687.69;30953309;28;97624;-70
2022/06/15 09:01:45;;;;;;;7.33;1.33;;;;;;;21.91;34.75;100686.31;30983405;28;99087;-61
2022/06/15 09:16:59;;;;;;;3.27;1.20;;;;;;;22.55;33.78;100680.19;30978083;28;98529;-62
2022/06/15 09:32:05;;;;;;;2.57;1.10;;;;;;;23.51;31.88;100687.03;30964427;28;97550;-63
2022/06/15 09:47:15;;;;;;;4.40;0.90;;;;;;;24.67;29.68;100655.66;30963334;28;97094;-63
2022/06/15 10:02:22;;;;;;;3.43;0.97;;;;;;;24.34;28.75;100651.06;30997529;28;96895;-75
2022/06/15 10:17:31;;;;;;;2.97;0.80;;;;;;;24.24;28.98;100651.75;31009158;28;97398;-63
2022/06/15 10:32:32;;;;;;;2.03;0.90;;;;;;;24.93;28.39;100641.50;30973438;28;98450;-69
2022/06/15 10:47:48;;;;;;;1.52;0.80;;;;;;;24.98;28.03;100625.22;30996157;28;96807;-66
2022/06/15 11:02:49;;;;;;;4.03;1.10;;;;;;;24.92;27.58;100624.34;30979389;28;97554;-62
2022/06/15 11:18:03;;;;;;;2.28;0.90;;;;;;;25.51;27.40;100606.41;30992928;28;97137;-62
2022/06/15 11:33:17;;;;;;;4.37;1.10;;;;;;;24.85;27.92;100599.19;30974068;28;97383;-66
2022/06/15 11:48:24;;;;;;;1.80;0.87;;;;;;;25.26;27.08;100594.16;30968979;28;97932;-64
2022/06/15 12:03:52;;;;;;;4.20;0.90;;;;;;;25.80;26.74;100592.44;30978158;28;96761;-63
2022/06/15 12:19:01;;;;;;;2.73;0.90;;;;;;;24.99;27.35;100583.25;30974676;28;97575;-66
2022/06/15 12:34:19;;;;;;;3.47;0.80;;;;;;;26.01;26.63;100564.19;30974917;28;97419;-65
2022/06/15 12:49:25;;;;;;;2.20;0.90;;;;;;;25.92;26.70;100552.13;30964038;28;96649;-66
2022/06/15 13:04:54;;;;;;;5.37;0.80;;;;;;;25.03;26.97;100548.97;30954046;28;98703;-73
2022/06/15 13:20:05;;;;;;;1.63;0.70;;;;;;;25.37;27.01;100532.38;30947318;28;98351;-75
2022/06/15 13:35:23;;;;;;;2.97;0.90;;;;;;;25.23;27.70;100518.31;30934746;28;97752;-67
2022/06/15 13:50:40;;;;;;;1.30;0.80;;;;;;;25.07;27.31;100502.91;30976250;28;97612;-68
2022/06/15 14:05:57;;;;;;;3.07;0.93;;;;;;;25.10;27.23;100483.34;30988142;28;97441;-67
2022/06/15 14:21:11;;;;;;;2.67;0.70;;;;;;;25.16;26.89;100472.22;30999828;28;97651;-77
2022/06/15 14:36:17;;;;;;;0.90;0.63;;;;;;;24.76;27.31;100467.22;30975873;28;96847;-74
2022/06/15 14:51:22;;;;;;;3.90;1.17;;;;;;;24.73;27.66;100448.66;30976332;28;98026;-70
2022/06/15 15:06:22;;;;;;;3.20;1.07;;;;;;;24.55;28.66;100439.78;30980298;28;97513;-71
2022/06/15 15:21:30;;;;;;;3.50;0.88;;;;;;;24.26;28.77;100422.84;30921231;28;97429;-65
2022/06/15 15:52:17;;;;;;;1.80;1.10;;;;;;;23.98;29.87;100413.84;30852200;28;96792;-63
2022/06/15 16:07:23;;;;;;;6.33;1.00;;;;;;;24.08;30.78;100399.53;30865617;28;96930;-63
2022/06/15 16:22:24;;;;;;;2.37;1.00;;;;;;;23.64;33.10;100392.19;31030557;28;96913;-62
2022/06/15 16:37:24;;;;;;;5.90;1.20;;;;;;;23.16;35.01;100386.38;30988405;28;97066;-61
2022/06/15 16:52:25;;;;;;;4.53;1.37;;;;;;;22.80;35.31;100383.91;30965356;28;96767;-61
2022/06/15 17:07:25;;;;;;;2.85;1.30;;;;;;;22.63;35.89;100373.00;30967376;28;96851;-61
2022/06/15 17:22:26;;;;;;;2.17;1.02;;;;;;;22.56;36.82;100361.50;31018455;28;96972;-61
2022/06/15 17:37:27;;;;;;;2.13;1.27;;;;;;;22.25;37.28;100369.09;30987549;28;97571;-62
2022/06/15 17:52:27;;;;;;;4.68;1.50;;;;;;;21.89;38.26;100365.69;30962877;28;97557;-59
2022/06/15 18:07:27;;;;;;;2.13;1.20;;;;;;;21.57;38.98;100362.59;30988608;28;96715;-62
2022/06/15 18:22:28;;;;;;;2.67;1.10;;;;;;;21.34;39.83;100355.28;30986935;28;96815;-59
2022/06/15 18:37:29;;;;;;;2.78;1.58;;;;;;;20.93;40.78;100356.03;30986951;28;97359;-62
2022/06/15 18:52:32;;;;;;;;;;;;;;;20.43;42.25;100356.38;30985054;28;97229;-64
2022/06/15 19:07:33;;;;;;;6.63;1.77;;;;;;;19.98;43.44;100367.66;30982915;28;97383;-69
2022/06/15 19:22:34;;;;;;;;;;;;;;;19.39;45.10;100373.50;30981989;28;98076;-67
2022/06/15 19:37:36;;;;;;;7.85;2.00;;;;;;;18.89;46.05;100385.19;30982645;28;98350;-75
2022/06/15 19:52:36;;;;;;;6.43;2.43;;;;;;;18.47;46.94;100382.97;30981967;28;97261;-71
2022/06/15 20:07:38;;;;;;;5.70;1.80;;;;;;;18.11;47.80;100384.41;30978937;28;97045;-68
2022/06/15 20:22:43;;;;;;;5.77;1.87;;;;;;;17.82;48.71;100373.13;30976796;28;97331;-72
2022/06/15 20:37:46;;;;;;;6.27;2.03;;;;;;;17.52;49.54;100370.97;30978640;28;96695;-74
2022/06/15 20:52:47;;;;;;;4.73;2.43;;;;;;;17.32;50.55;100372.84;30975819;28;98211;-65
2022/06/15 21:07:47;;;;;;;3.60;1.58;;;;;;;17.16;51.00;100376.84;30974391;28;97110;-67
2022/06/15 21:22:50;;;;;;;6.78;2.65;;;;;;;17.00;51.38;100378.09;30973178;28;96710;-73
2022/06/15 21:37:54;;;;;;;3.53;1.80;;;;;;;16.78;52.23;100362.13;30969754;28;96923;-64
2022/06/15 21:52:55;;;;;;;6.00;2.00;;;;;;;16.60;52.89;100372.69;30966471;28;97077;-69
2022/06/15 22:07:56;;;;;;;3.53;1.80;;;;;;;16.45;53.34;100362.94;30984430;28;97423;-73
2022/06/15 22:22:56;;;;;;;6.05;2.47;;;;;;;16.19;53.99;100359.16;31052106;28;96850;-72
2022/06/15 22:37:57;;;;;;;3.67;2.00;;;;;;;15.98;54.62;100365.50;31114825;28;96749;-68
2022/06/15 22:52:57;;;;;;;4.22;2.00;;;;;;;15.73;55.38;100359.78;31113479;28;97347;-72
2022/06/15 23:07:58;;;;;;;5.38;2.03;;;;;;;15.48;55.85;100357.59;31112131;28;96732;-72
2022/06/15 23:22:59;;;;;;;4.82;2.28;;;;;;;15.25;56.35;100344.47;31111569;28;96782;-74
2022/06/15 23:37:59;;;;;;;3.73;2.30;;;;;;;15.10;57.33;100344.56;31109016;28;96817;-68
2022/06/15 23:53:00;;;;;;;4.40;2.38;;;;;;;14.92;57.56;100323.63;31107658;28;96968;-71
